Time;durP1;ratioP1;P1;durP2;ratioP2;P2;SDS_P1;SDS_P2;PMS_P1;PMS_P2;Temp;Humidity;BMP_temperature;BMP_pressure;BME280_temperature;BME280_humidity;BME280_pressure;Samples;Min_cycle;Max_cycle;Signal;HPM_P1;HPM_P2
2024/04/21 00:02:24;;;;;;;5.53;3.30;;;;;;;6.85;88.91;101167.66;5173923;27;20031;-85
2024/04/21 00:04:59;;;;;;;2.70;2.50;;;;;;;6.66;88.07;101177.78;5171926;27;20004;-84
2024/04/21 00:07:25;;;;;;;5.75;1.73;;;;;;;6.53;88.77;101179.34;5126250;27;20098;-82
2024/04/21 00:09:53;;;;;;;2.25;1.42;;;;;;;6.58;88.02;101180.28;5151986;27;20433;-83
2024/04/21 00:12:19;;;;;;;2.80;1.92;;;;;;;6.52;88.01;101176.69;5153448;27;20843;-83
2024/04/21 00:14:50;;;;;;;1.50;1.33;;;;;;;6.47;87.50;101179.22;5152303;27;20038;-83
2024/04/21 00:17:16;;;;;;;1.55;1.45;;;;;;;6.42;86.95;101186.09;5145713;27;20012;-84
2024/04/21 00:19:45;;;;;;;1.52;1.42;;;;;;;6.29;88.54;101185.84;5121979;27;20065;-83
2024/04/21 00:22:11;;;;;;;4.10;1.73;;;;;;;6.35;87.64;101186.81;5146281;27;20016;-81
2024/04/21 00:24:42;;;;;;;1.27;1.10;;;;;;;6.40;87.23;101187.75;5147217;27;20019;-86
2024/04/21 00:27:07;;;;;;;1.40;1.33;;;;;;;6.25;88.07;101184.06;5143385;27;20012;-83
2024/04/21 00:29:36;;;;;;;1.25;1.15;;;;;;;6.21;87.77;101191.78;5130259;27;20333;-84
2024/04/21 00:32:02;;;;;;;1.30;0.93;;;;;;;5.98;87.88;101184.44;5140715;27;20004;-82
2024/04/21 00:34:33;;;;;;;1.65;1.00;;;;;;;5.94;88.79;101186.09;5126722;27;20012;-88
2024/04/21 00:36:59;;;;;;;1.25;1.13;;;;;;;6.03;88.76;101190.59;5178799;27;20020;-85
2024/04/21 00:39:27;;;;;;;1.58;1.48;;;;;;;5.94;89.73;101193.00;5178089;27;20012;-88
2024/04/21 00:41:53;;;;;;;1.38;1.27;;;;;;;5.84;91.37;101180.69;5146587;27;20016;-87
2024/04/21 00:44:22;;;;;;;1.40;1.20;;;;;;;5.86;92.17;101189.38;5176536;27;20019;-85
2024/04/21 00:46:48;;;;;;;1.73;1.45;;;;;;;5.82;94.62;101195.38;5148375;27;20008;-84
2024/04/21 00:49:16;;;;;;;1.77;1.67;;;;;;;5.77;97.59;101200.47;5154198;27;20065;-86
2024/04/21 00:51:43;;;;;;;1.65;1.55;;;;;;;5.78;99.15;101203.09;5125684;27;20016;-86
2024/04/21 00:54:16;;;;;;;1.88;1.77;;;;;;;5.79;100.00;101197.06;5155921;27;20028;-87
2024/04/21 00:56:42;;;;;;;1.52;1.50;;;;;;;5.76;100.00;101201.31;5145636;27;20016;-84
2024/04/21 00:59:14;;;;;;;2.53;2.30;;;;;;;5.59;100.00;101207.06;5175407;27;20016;-85
2024/04/21 01:01:39;;;;;;;3.03;2.08;;;;;;;5.45;100.00;101209.38;5171350;27;20012;-82
2024/04/21 01:04:08;;;;;;;2.22;2.00;;;;;;;5.45;100.00;101208.50;5138288;27;20120;-84
2024/04/21 01:06:33;;;;;;;3.15;2.08;;;;;;;5.36;100.00;101208.28;5171391;27;20012;-83
2024/04/21 01:09:02;;;;;;;2.53;2.10;;;;;;;5.42;100.00;101216.22;5176526;27;20023;-83
2024/04/21 01:11:28;;;;;;;2.85;2.22;;;;;;;5.45;100.00;101211.09;5180071;27;20067;-84
2024/04/21 01:13:58;;;;;;;2.55;2.30;;;;;;;5.50;100.00;101208.59;5197148;27;20007;-85
2024/04/21 01:16:24;;;;;;;2.65;2.20;;;;;;;5.49;100.00;101215.50;5149070;27;20011;-83
2024/04/21 01:18:52;;;;;;;3.25;2.10;;;;;;;5.51;100.00;101208.59;5172893;27;20478;-83
2024/04/21 01:21:18;;;;;;;2.35;2.22;;;;;;;5.40;100.00;101205.78;5155895;27;20094;-85
2024/04/21 01:23:47;;;;;;;2.17;2.08;;;;;;;5.40;100.00;101216.19;5176746;27;20012;-82
2024/04/21 01:26:13;;;;;;;1.83;1.73;;;;;;;5.22;100.00;101216.66;5154137;27;20081;-84
2024/04/21 01:28:44;;;;;;;1.73;1.63;;;;;;;5.20;100.00;101207.97;5149919;27;20011;-85
2024/04/21 01:31:10;;;;;;;5.35;2.00;;;;;;;5.13;100.00;101216.44;5176665;27;20025;-84
2024/04/21 01:33:40;;;;;;;2.38;2.17;;;;;;;5.07;100.00;101213.72;5154712;27;20428;-84
2024/04/21 01:36:07;;;;;;;1.63;1.52;;;;;;;4.97;100.00;101208.31;5179572;27;20373;-84
2024/04/21 01:38:35;;;;;;;0.93;0.93;;;;;;;4.94;100.00;101207.34;5176291;27;20076;-83
2024/04/21 01:41:01;;;;;;;3.28;2.17;;;;;;;4.86;100.00;101208.91;5206150;27;20022;-83
2024/04/21 01:43:30;;;;;;;2.65;1.58;;;;;;;4.95;100.00;101214.31;5201998;27;20007;-84
2024/04/21 01:45:55;;;;;;;3.25;2.00;;;;;;;4.93;100.00;101211.69;5201375;27;20370;-84
2024/04/21 01:48:23;;;;;;;1.50;1.40;;;;;;;4.93;100.00;101208.22;5178912;27;20016;-84
2024/04/21 01:50:49;;;;;;;1.58;1.48;;;;;;;4.92;100.00;101215.13;5194665;27;20023;-83
2024/04/21 01:53:18;;;;;;;1.30;1.20;;;;;;;4.91;100.00;101207.31;5174087;27;20048;-83
2024/04/21 01:55:43;;;;;;;1.67;1.67;;;;;;;4.94;100.00;101210.84;5170999;27;20026;-85
2024/04/21 01:58:12;;;;;;;1.52;1.48;;;;;;;4.92;100.00;101204.72;5181910;27;20023;-84
2024/04/21 02:00:39;;;;;;;3.53;2.03;;;;;;;4.99;100.00;101207.47;5177061;27;20039;-83
2024/04/21 02:03:10;;;;;;;1.95;1.67;;;;;;;5.00;100.00;101215.28;5183740;27;20958;-84
2024/04/21 02:05:35;;;;;;;1.75;1.65;;;;;;;5.03;100.00;101209.28;5176851;27;20987;-85
2024/04/21 02:08:07;;;;;;;3.83;1.63;;;;;;;5.01;100.00;101211.88;5181140;27;20032;-85
2024/04/21 02:10:34;;;;;;;1.42;1.33;;;;;;;4.88;100.00;101209.84;5177474;27;20448;-84
2024/04/21 02:13:03;;;;;;;2.05;1.92;;;;;;;4.93;100.00;101213.41;5176522;27;21494;-84
2024/04/21 02:15:29;;;;;;;1.83;1.73;;;;;;;4.93;100.00;101210.81;5178510;27;20022;-84
2024/04/21 02:17:57;;;;;;;2.47;1.70;;;;;;;4.90;100.00;101214.22;5176048;27;20035;-85
2024/04/21 02:20:22;;;;;;;1.80;1.70;;;;;;;4.83;100.00;101217.50;5180787;27;20023;-85
2024/04/21 02:22:51;;;;;;;3.67;1.90;;;;;;;4.75;100.00;101217.31;5202217;27;20026;-85
2024/04/21 02:25:17;;;;;;;4.05;2.20;;;;;;;4.84;100.00;101220.94;5158216;27;20047;-84
2024/04/21 02:27:46;;;;;;;2.03;1.88;;;;;;;4.70;100.00;101221.50;5201312;27;20044;-84
2024/04/21 02:30:11;;;;;;;2.42;2.22;;;;;;;4.73;100.00;101229.38;5203423;27;20015;-85
2024/04/21 02:32:40;;;;;;;2.13;2.03;;;;;;;4.76;100.00;101226.84;5206818;27;20023;-83
2024/04/21 02:35:10;;;;;;;2.42;2.22;;;;;;;4.80;100.00;101233.88;5207335;27;20007;-85
2024/04/21 02:37:41;;;;;;;2.10;1.90;;;;;;;4.85;100.00;101231.41;5175222;27;20025;-84
2024/04/21 02:40:07;;;;;;;5.63;2.17;;;;;;;4.79;100.00;101226.91;5177613;27;20008;-84
2024/04/21 02:42:36;;;;;;;2.38;2.08;;;;;;;4.76;100.00;101242.41;5175133;27;20111;-82
2024/04/21 02:45:01;;;;;;;2.92;2.72;;;;;;;4.48;100.00;101233.06;5180040;27;21658;-84
2024/04/21 02:47:35;;;;;;;3.08;2.78;;;;;;;4.27;100.00;101236.00;5144960;27;20012;-85
2024/04/21 02:50:00;;;;;;;2.50;2.30;;;;;;;4.27;100.00;101239.44;5178447;27;20120;-84
2024/04/21 02:52:28;;;;;;;2.25;2.05;;;;;;;4.23;100.00;101244.53;5170202;27;20020;-85
2024/04/21 02:54:54;;;;;;;2.92;2.72;;;;;;;4.19;100.00;101247.88;5180229;27;20725;-85
2024/04/21 02:57:22;;;;;;;3.40;2.92;;;;;;;4.13;100.00;101256.34;5178641;27;20023;-84
2024/04/21 02:59:48;;;;;;;3.53;2.25;;;;;;;3.97;100.00;101252.47;5177965;27;20012;-84
2024/04/21 03:02:16;;;;;;;3.67;2.67;;;;;;;4.04;100.00;101257.00;5203158;27;20036;-84
2024/04/21 03:04:45;;;;;;;3.03;2.72;;;;;;;4.09;100.00;101258.00;5178487;27;20713;-84
2024/04/21 03:07:13;;;;;;;3.33;2.83;;;;;;;3.96;100.00;101261.97;5178486;27;20467;-83
2024/04/21 03:09:46;;;;;;;2.75;2.53;;;;;;;3.98;100.00;101256.81;5150102;27;20016;-85
2024/04/21 03:12:15;;;;;;;7.68;2.30;;;;;;;3.98;100.00;101265.44;5170805;27;20012;-84
2024/04/21 03:14:40;;;;;;;3.42;2.40;;;;;;;3.97;100.00;101261.09;5150581;27;20087;-83
2024/04/21 03:17:20;;;;;;;4.25;2.45;;;;;;;3.87;100.00;101261.69;5146350;27;20004;-84
2024/04/21 03:19:50;;;;;;;3.92;3.08;;;;;;;3.79;100.00;101263.19;5174921;27;20105;-84
2024/04/21 03:22:22;;;;;;;4.45;2.22;;;;;;;3.64;100.00;101267.06;5150567;27;20023;-85
2024/04/21 03:24:48;;;;;;;2.53;2.33;;;;;;;3.67;100.00;101265.44;5145684;27;20015;-84
2024/04/21 03:27:19;;;;;;;4.28;3.05;;;;;;;3.62;100.00;101265.28;5171836;27;20022;-83
2024/04/21 03:29:47;;;;;;;3.90;2.85;;;;;;;3.60;100.00;101273.00;5147239;27;20121;-85
2024/04/21 03:32:20;;;;;;;2.92;2.72;;;;;;;3.58;100.00;101281.56;5163188;27;20018;-85
2024/04/21 03:34:52;;;;;;;3.92;3.00;;;;;;;3.55;100.00;101281.47;5143861;27;20008;-84
2024/04/21 03:37:21;;;;;;;3.67;3.38;;;;;;;3.42;100.00;101283.69;5171571;27;20016;-87
2024/04/21 03:39:52;;;;;;;5.88;4.03;;;;;;;3.47;100.00;101284.69;5174282;27;20023;-85
2024/04/21 03:42:23;;;;;;;6.22;3.78;;;;;;;3.46;100.00;101289.84;5175790;27;20988;-83
2024/04/21 03:44:51;;;;;;;4.70;3.70;;;;;;;3.53;100.00;101288.31;5197528;27;20017;-83
2024/04/21 03:47:20;;;;;;;4.85;3.92;;;;;;;3.50;100.00;101294.28;5196702;27;20040;-83
2024/04/21 03:49:51;;;;;;;5.75;4.32;;;;;;;3.45;100.00;101290.66;5166503;27;20016;-83
2024/04/21 03:52:20;;;;;;;6.20;5.15;;;;;;;3.39;100.00;101295.63;5174821;27;20027;-83
2024/04/21 03:54:50;;;;;;;6.28;5.20;;;;;;;3.40;100.00;101300.00;5171040;27;20088;-84
2024/04/21 03:57:16;;;;;;;9.88;5.15;;;;;;;3.43;100.00;101302.69;5149138;27;20023;-84
2024/04/21 03:59:45;;;;;;;6.68;4.03;;;;;;;3.45;100.00;101306.19;5178720;27;20031;-83
2024/04/21 04:02:14;;;;;;;7.50;4.20;;;;;;;3.33;100.00;101313.59;5178738;27;20008;-85
2024/04/21 04:04:42;;;;;;;6.53;4.35;;;;;;;3.37;100.00;101315.44;5175945;27;20035;-85
2024/04/21 04:07:07;;;;;;;5.25;4.05;;;;;;;3.31;100.00;101317.00;5172645;27;20007;-83
2024/04/21 04:09:36;;;;;;;6.20;4.47;;;;;;;3.27;100.00;101316.84;5178502;27;20035;-84
2024/04/21 04:12:01;;;;;;;4.78;4.28;;;;;;;3.21;100.00;101325.31;5170576;27;20453;-84
2024/04/21 04:14:30;;;;;;;6.47;3.75;;;;;;;3.21;100.00;101324.44;5169993;27;20015;-85
2024/04/21 04:16:56;;;;;;;3.50;3.10;;;;;;;3.19;100.00;101332.13;5169464;27;20099;-84
2024/04/21 04:19:24;;;;;;;3.40;2.92;;;;;;;3.11;100.00;101333.59;5169556;27;20364;-84
2024/04/21 04:21:50;;;;;;;2.90;2.67;;;;;;;3.10;100.00;101337.00;5170838;27;20028;-84
2024/04/21 04:24:18;;;;;;;2.60;2.40;;;;;;;3.07;100.00;101337.78;5142435;27;20073;-85
2024/04/21 04:26:44;;;;;;;3.28;2.92;;;;;;;3.10;100.00;101337.91;5202646;27;20573;-83
2024/04/21 04:29:12;;;;;;;3.17;2.90;;;;;;;3.11;100.00;101337.03;5168461;27;20020;-82
2024/04/21 04:31:38;;;;;;;3.35;2.75;;;;;;;3.14;100.00;101341.44;5169918;27;20885;-84
2024/04/21 04:34:06;;;;;;;4.05;2.65;;;;;;;3.14;100.00;101344.03;5177680;27;20023;-84
2024/04/21 04:36:32;;;;;;;2.42;2.25;;;;;;;3.08;100.00;101344.72;5169678;27;20471;-83
2024/04/21 04:39:04;;;;;;;7.22;3.10;;;;;;;3.07;100.00;101355.03;5169286;27;20009;-84
2024/04/21 04:41:30;;;;;;;3.65;2.50;;;;;;;3.05;100.00;101365.31;5153533;27;20007;-84
2024/04/21 04:43:58;;;;;;;3.95;2.85;;;;;;;2.87;100.00;101368.16;5196896;27;20878;-83
2024/04/21 04:46:24;;;;;;;4.43;2.28;;;;;;;2.90;100.00;101376.00;5149141;27;20114;-83
2024/04/21 04:48:52;;;;;;;2.50;2.28;;;;;;;2.92;100.00;101369.19;5197720;27;20012;-84
2024/04/21 04:51:17;;;;;;;5.68;2.60;;;;;;;2.93;100.00;101370.97;5170070;27;20016;-84
2024/04/21 04:53:46;;;;;;;2.75;2.42;;;;;;;2.94;100.00;101374.41;5176887;27;20027;-83
2024/04/21 04:56:14;;;;;;;2.88;2.35;;;;;;;2.88;100.00;101380.28;5177292;27;20027;-85
2024/04/21 04:58:42;;;;;;;2.50;2.25;;;;;;;2.95;100.00;101381.34;5179721;27;20040;-85
2024/04/21 05:01:08;;;;;;;3.70;2.50;;;;;;;2.80;100.00;101385.19;5160608;27;20441;-85
2024/04/21 05:03:36;;;;;;;6.25;2.90;;;;;;;2.86;100.00;101391.41;5169819;27;20948;-84
2024/04/21 05:06:02;;;;;;;3.47;2.00;;;;;;;2.86;100.00;101393.97;5149690;27;20013;-83
2024/04/21 05:08:33;;;;;;;2.72;1.95;;;;;;;2.86;100.00;101393.97;5145599;27;20056;-85
2024/04/21 05:10:59;;;;;;;5.15;2.85;;;;;;;2.85;100.00;101402.56;5138654;27;20023;-84
2024/04/21 05:13:27;;;;;;;3.53;2.58;;;;;;;2.88;100.00;101407.81;5141703;27;20016;-83
2024/04/21 05:15:55;;;;;;;2.50;2.30;;;;;;;2.98;100.00;101403.00;5169114;27;20005;-83
2024/04/21 05:18:24;;;;;;;3.45;2.53;;;;;;;3.06;100.00;101413.63;5139626;27;20023;-83
2024/04/21 05:20:49;;;;;;;3.72;2.35;;;;;;;3.05;100.00;101411.88;5118152;27;20008;-83
2024/04/21 05:23:17;;;;;;;2.17;1.98;;;;;;;3.13;100.00;101409.56;5141786;27;20040;-83
2024/04/21 05:25:43;;;;;;;2.20;2.00;;;;;;;3.18;100.00;101412.28;5118243;27;20027;-83
2024/04/21 05:28:13;;;;;;;2.55;1.90;;;;;;;3.18;100.00;101426.13;5141790;27;20020;-84
2024/04/21 05:30:39;;;;;;;2.90;2.60;;;;;;;3.08;100.00;101418.88;5141765;27;20012;-84
2024/04/21 05:33:10;;;;;;;3.75;2.45;;;;;;;3.13;100.00;101425.09;5149774;27;20008;-83
2024/04/21 05:35:45;;;;;;;3.38;2.78;;;;;;;2.98;100.00;101423.69;5145361;27;20235;-83
2024/04/21 05:38:16;;;;;;;2.92;2.38;;;;;;;3.25;100.00;101430.66;5148886;27;20027;-84
2024/04/21 05:40:41;;;;;;;4.30;2.40;;;;;;;3.36;100.00;101427.53;5143733;27;20013;-85
2024/04/21 05:43:10;;;;;;;2.65;2.22;;;;;;;3.34;100.00;101427.50;5147585;27;20040;-83
2024/04/21 05:45:39;;;;;;;3.22;2.20;;;;;;;3.47;100.00;101428.78;5143466;27;20009;-84
2024/04/21 05:48:08;;;;;;;3.60;2.30;;;;;;;3.51;100.00;101438.41;5137830;27;20020;-84
2024/04/21 05:50:34;;;;;;;5.68;2.72;;;;;;;3.58;100.00;101436.91;5114446;27;20016;-85
2024/04/21 05:53:02;;;;;;;3.60;2.35;;;;;;;3.38;100.00;101441.44;5119484;27;20404;-84
2024/04/21 05:55:28;;;;;;;3.20;2.90;;;;;;;3.56;100.00;101442.03;5141364;27;20024;-84
2024/04/21 05:57:56;;;;;;;4.20;3.47;;;;;;;3.60;100.00;101440.44;5141767;27;20019;-83
2024/04/21 06:00:21;;;;;;;3.63;3.08;;;;;;;3.71;100.00;101446.81;5146358;27;20103;-84
2024/04/21 06:02:50;;;;;;;4.32;3.38;;;;;;;3.74;100.00;101441.75;5136727;27;20069;-84
2024/04/21 06:05:20;;;;;;;6.13;3.05;;;;;;;3.73;100.00;101445.16;5148630;27;20813;-85
2024/04/21 06:07:48;;;;;;;5.43;3.75;;;;;;;3.96;100.00;101447.56;5169146;27;20113;-84
2024/04/21 06:10:16;;;;;;;3.10;2.80;;;;;;;3.96;100.00;101455.34;5141833;27;20009;-85
2024/04/21 06:12:44;;;;;;;4.25;2.85;;;;;;;4.07;100.00;101446.19;5174134;27;20012;-84
2024/04/21 06:15:10;;;;;;;10.00;3.72;;;;;;;4.17;100.00;101454.25;5172924;27;20104;-84
2024/04/21 06:17:40;;;;;;;3.42;2.50;;;;;;;4.13;100.00;101446.41;5150930;27;20020;-85
2024/04/21 06:20:07;;;;;;;4.15;3.13;;;;;;;4.04;100.00;101460.78;5178710;27;20004;-83
2024/04/21 06:22:36;;;;;;;3.47;2.50;;;;;;;4.13;100.00;101463.63;5141711;27;20013;-85
2024/04/21 06:25:01;;;;;;;3.25;2.95;;;;;;;4.22;100.00;101473.41;5154215;27;20021;-84
2024/04/21 06:27:30;;;;;;;5.43;3.78;;;;;;;4.37;100.00;101467.78;5149559;27;20476;-85
2024/04/21 06:30:04;;;;;;;4.60;2.90;;;;;;;4.38;100.00;101473.03;5125963;27;20025;-84
2024/04/21 06:32:32;;;;;;;2.97;2.65;;;;;;;4.43;100.00;101492.22;5148566;27;20031;-85
2024/04/21 06:34:57;;;;;;;3.47;2.78;;;;;;;4.44;100.00;101487.91;5124950;27;20766;-83
2024/04/21 06:37:26;;;;;;;4.72;3.10;;;;;;;4.60;100.00;101486.63;5149881;27;20031;-84
2024/04/21 06:39:54;;;;;;;3.85;2.95;;;;;;;4.72;100.00;101486.09;5151184;27;20088;-86
2024/04/21 06:42:22;;;;;;;6.18;3.08;;;;;;;4.86;100.00;101487.34;5150047;27;20009;-83
2024/04/21 06:44:48;;;;;;;6.20;3.80;;;;;;;4.90;100.00;101486.63;5150853;27;20866;-84
2024/04/21 06:47:16;;;;;;;2.97;2.65;;;;;;;5.07;100.00;101488.78;5148377;27;20017;-84
2024/04/21 06:49:42;;;;;;;8.00;2.65;;;;;;;5.27;100.00;101484.16;5129843;27;20006;-84
2024/04/21 06:52:10;;;;;;;5.47;2.78;;;;;;;5.36;99.93;101491.28;5146826;27;20465;-82
2024/04/21 06:54:39;;;;;;;3.97;3.53;;;;;;;6.07;96.65;101501.72;5144241;27;20800;-83
2024/04/21 06:57:09;;;;;;;3.03;2.72;;;;;;;7.63;86.44;101498.75;5147022;27;20019;-85
2024/04/21 06:59:37;;;;;;;4.80;2.75;;;;;;;10.00;68.93;101493.72;5163782;27;20248;-84
2024/04/21 07:02:05;;;;;;;2.85;2.60;;;;;;;11.53;59.34;101500.44;5150102;27;20048;-85
2024/04/21 07:04:32;;;;;;;2.65;2.20;;;;;;;11.89;56.95;101505.72;5172347;27;20028;-85
2024/04/21 07:07:07;;;;;;;2.95;2.50;;;;;;;12.30;56.18;101502.16;5186091;27;20019;-83
2024/04/21 07:09:39;;;;;;;3.45;2.35;;;;;;;12.28;56.40;101503.03;5190057;27;20024;-83
2024/04/21 07:12:12;;;;;;;2.67;2.47;;;;;;;11.64;56.08;101505.72;5219638;27;20038;-84
2024/04/21 07:14:43;;;;;;;3.42;2.53;;;;;;;13.85;50.25;101496.06;5169440;27;20023;-83
2024/04/21 07:17:11;;;;;;;3.83;2.63;;;;;;;13.52;50.92;101504.22;5182403;27;20484;-83
2024/04/21 07:19:37;;;;;;;2.20;2.00;;;;;;;13.60;49.78;101514.69;5182618;27;20377;-83
2024/04/21 07:22:08;;;;;;;2.33;2.05;;;;;;;13.72;51.49;101511.94;5148959;27;20016;-84
2024/04/21 07:24:34;;;;;;;4.43;2.67;;;;;;;12.02;53.10;101531.09;5174697;27;20008;-85
2024/04/21 07:27:04;;;;;;;2.38;2.17;;;;;;;13.11;49.57;101518.47;5177761;27;20012;-85
2024/04/21 07:29:30;;;;;;;3.80;2.22;;;;;;;13.40;48.18;101515.72;5179809;27;20015;-84
2024/04/21 07:31:59;;;;;;;2.75;2.40;;;;;;;14.51;46.83;101513.81;5167461;27;20007;-84
2024/04/21 07:34:27;;;;;;;3.90;2.30;;;;;;;13.07;48.26;101515.00;5182771;27;20022;-85
2024/04/21 07:36:59;;;;;;;3.30;2.75;;;;;;;11.89;50.43;101516.22;5177659;27;20087;-85
2024/04/21 07:39:27;;;;;;;4.97;2.97;;;;;;;13.52;47.68;101524.41;5205570;27;20043;-86
2024/04/21 07:41:58;;;;;;;2.55;2.35;;;;;;;15.87;42.83;101519.84;5184376;27;20064;-85
2024/04/21 07:44:25;;;;;;;4.25;2.80;;;;;;;15.09;44.06;101527.19;5173094;27;20027;-84
2024/04/21 07:46:54;;;;;;;3.53;3.17;;;;;;;16.60;40.77;101520.28;5187519;27;20027;-85
2024/04/21 07:49:19;;;;;;;5.28;2.78;;;;;;;17.33;38.97;101531.06;5152316;27;20012;-83
2024/04/21 07:51:50;;;;;;;4.28;2.53;;;;;;;15.91;42.15;101525.09;5182455;27;20060;-84
2024/04/21 07:54:16;;;;;;;5.15;3.67;;;;;;;14.20;43.49;101539.63;5180200;27;20006;-85
2024/04/21 07:56:44;;;;;;;6.65;3.25;;;;;;;13.37;47.14;101539.38;5212111;27;20824;-84
2024/04/21 07:59:09;;;;;;;3.75;3.40;;;;;;;12.13;48.46;101549.44;5183113;27;20020;-84
2024/04/21 08:01:38;;;;;;;3.00;2.80;;;;;;;10.59;50.33;101547.34;5182572;27;20464;-83
2024/04/21 08:04:06;;;;;;;3.88;3.10;;;;;;;9.88;53.46;101552.03;5173654;27;20012;-83
2024/04/21 08:06:34;;;;;;;4.30;3.53;;;;;;;8.49;57.22;101558.34;5169326;27;20382;-84
2024/04/21 08:09:00;;;;;;;4.93;4.28;;;;;;;7.91;59.33;101554.81;5171228;27;20020;-82
2024/04/21 08:11:28;;;;;;;5.85;3.08;;;;;;;7.53;58.59;101569.78;5200097;27;20008;-84
2024/04/21 08:14:04;;;;;;;5.10;3.13;;;;;;;7.19;58.56;101576.97;5176810;27;20012;-83
2024/04/21 08:16:35;;;;;;;4.82;2.80;;;;;;;8.24;55.46;101571.00;5161789;27;20080;-83
2024/04/21 08:19:01;;;;;;;3.95;2.53;;;;;;;9.03;51.68;101570.34;5174052;27;20039;-86
2024/04/21 08:21:30;;;;;;;4.78;2.95;;;;;;;8.01;53.47;101570.63;5174771;27;20012;-85
2024/04/21 08:23:55;;;;;;;3.65;2.65;;;;;;;8.07;54.23;101575.91;5189668;27;20092;-84
2024/04/21 08:26:26;;;;;;;2.42;2.22;;;;;;;8.09;54.35;101575.09;5142936;27;20040;-84
2024/04/21 08:28:52;;;;;;;2.95;2.55;;;;;;;8.75;51.99;101587.41;5177583;27;20009;-83
2024/04/21 08:31:20;;;;;;;2.45;2.25;;;;;;;7.96;54.15;101583.56;5172173;27;20031;-83
2024/04/21 08:33:46;;;;;;;2.65;1.92;;;;;;;7.32;53.79;101596.31;5145061;27;20032;-86
2024/04/21 08:36:14;;;;;;;2.90;1.92;;;;;;;7.59;54.35;101589.00;5146415;27;20105;-85
2024/04/21 08:38:40;;;;;;;2.63;2.30;;;;;;;8.48;52.18;101596.59;5171976;27;20023;-86
2024/04/21 08:41:11;;;;;;;2.40;2.17;;;;;;;8.68;51.69;101596.00;5170313;27;20017;-84
2024/04/21 08:43:39;;;;;;;4.53;2.10;;;;;;;8.28;52.62;101593.66;5144381;27;20571;-84
2024/04/21 08:46:11;;;;;;;3.03;2.05;;;;;;;8.07;52.44;101587.22;5144558;27;20016;-84
2024/04/21 08:48:38;;;;;;;1.77;1.67;;;;;;;7.66;50.93;101602.16;5172729;27;20016;-86
2024/04/21 08:51:08;;;;;;;5.13;2.03;;;;;;;7.79;50.46;101606.75;5171255;27;20421;-86
2024/04/21 08:53:34;;;;;;;1.98;1.65;;;;;;;7.72;50.94;101608.34;5143292;27;20096;-87
2024/04/21 08:56:18;;;;;;;1.65;1.55;;;;;;;9.02;48.81;101591.22;5196857;27;20020;-84
2024/04/21 08:58:47;;;;;;;2.10;1.40;;;;;;;10.81;42.97;101605.94;5171831;27;20052;-87
2024/04/21 09:01:18;;;;;;;1.73;1.55;;;;;;;10.22;43.18;101607.25;5169843;27;20114;-86
2024/04/21 09:03:45;;;;;;;3.88;1.55;;;;;;;9.21;45.89;101598.41;5171918;27;20023;-85
2024/04/21 09:06:16;;;;;;;1.50;1.40;;;;;;;9.40;45.69;101606.50;5152148;27;20028;-88
2024/04/21 09:08:43;;;;;;;2.10;1.25;;;;;;;8.89;45.19;101601.53;5145517;27;20012;-85
2024/04/21 09:11:16;;;;;;;4.43;1.60;;;;;;;10.64;43.81;101599.72;5145131;27;20004;-84
2024/04/21 09:13:42;;;;;;;2.20;1.73;;;;;;;13.22;38.52;101590.28;5118445;27;20109;-85
2024/04/21 09:16:10;;;;;;;2.70;2.08;;;;;;;12.76;39.74;101593.06;5173051;27;20095;-85
2024/04/21 09:18:36;;;;;;;1.35;1.20;;;;;;;11.84;39.51;101597.53;5170578;27;20012;-84
2024/04/21 09:21:04;;;;;;;1.42;1.30;;;;;;;10.87;40.97;101605.09;5148333;27;20354;-86
2024/04/21 09:23:30;;;;;;;1.80;1.67;;;;;;;9.92;42.22;101607.03;5145493;27;20059;-85
2024/04/21 09:25:59;;;;;;;3.40;1.67;;;;;;;9.24;43.73;101608.03;5170143;27;20069;-87
2024/04/21 09:28:25;;;;;;;1.65;1.55;;;;;;;8.52;44.53;101628.84;5147340;27;20020;-87
2024/04/21 09:30:53;;;;;;;1.02;1.02;;;;;;;7.89;42.03;101629.50;5120046;27;20012;-85
2024/04/21 09:33:20;;;;;;;1.98;1.30;;;;;;;8.87;41.81;101624.13;5145953;27;20009;-86
2024/04/21 09:35:49;;;;;;;1.63;1.50;;;;;;;8.56;42.69;101617.59;5143222;27;20009;-85
2024/04/21 09:38:14;;;;;;;1.58;1.33;;;;;;;8.74;43.68;101616.97;5153292;27;20024;-88
2024/04/21 09:40:44;;;;;;;1.52;1.42;;;;;;;8.77;44.00;101617.00;5149492;27;20009;-86
2024/04/21 09:43:13;;;;;;;1.95;1.40;;;;;;;9.25;43.23;101628.09;5122136;27;20012;-88
2024/04/21 09:45:42;;;;;;;4.53;1.30;;;;;;;9.71;43.46;101622.50;5179308;27;20572;-88
2024/04/21 09:48:08;;;;;;;1.63;1.40;;;;;;;9.57;42.43;101614.53;5127600;27;20024;-89
2024/04/21 09:50:38;;;;;;;1.67;1.45;;;;;;;9.11;44.96;101625.28;5151364;27;20024;-90
2024/04/21 09:53:09;;;;;;;1.92;1.67;;;;;;;8.76;45.97;101628.28;5150005;27;20016;-88
2024/04/21 09:55:42;;;;;;;1.88;1.73;;;;;;;8.44;45.84;101637.38;5126252;27;20009;-86
2024/04/21 09:58:14;;;;;;;2.47;1.55;;;;;;;8.30;45.55;101633.66;5148354;27;20060;-87
2024/04/21 10:00:55;;;;;;;1.20;1.13;;;;;;;7.77;46.72;101637.13;5154577;27;20083;-87
2024/04/21 10:03:26;;;;;;;3.78;1.73;;;;;;;7.60;47.79;101647.19;5183754;27;20016;-87
2024/04/21 10:05:56;;;;;;;1.70;1.48;;;;;;;7.43;47.87;101641.66;5155430;27;20314;-87
2024/04/21 10:08:26;;;;;;;2.60;1.40;;;;;;;7.52;48.11;101652.28;5212079;27;20875;-86
2024/04/21 10:10:55;;;;;;;2.38;1.50;;;;;;;7.42;48.08;101652.97;5180589;27;20362;-89
2024/04/21 10:13:21;;;;;;;2.85;2.03;;;;;;;7.70;47.58;101650.88;5180741;27;20015;-88
2024/04/21 10:15:53;;;;;;;2.10;1.30;;;;;;;7.50;46.92;101656.59;5207413;27;20104;-86
2024/04/21 10:18:20;;;;;;;2.15;1.13;;;;;;;7.69;45.96;101667.34;5155518;27;20023;-88
2024/04/21 10:20:49;;;;;;;3.50;1.58;;;;;;;7.65;46.43;101671.63;5158487;27;20013;-85
2024/04/21 10:23:18;;;;;;;1.30;1.30;;;;;;;8.00;45.63;101660.13;5183666;27;20008;-87
2024/04/21 10:25:49;;;;;;;2.20;1.95;;;;;;;7.87;45.90;101666.84;5179839;27;20005;-88
2024/04/21 10:28:28;;;;;;;1.25;1.20;;;;;;;7.67;45.82;101675.16;5181100;27;20044;-88
2024/04/21 10:31:10;;;;;;;1.83;0.80;;;;;;;7.59;45.59;101672.41;5154938;27;20012;-87
2024/04/21 10:33:40;;;;;;;2.00;1.33;;;;;;;7.56;45.01;101674.94;5182386;27;20197;-89
2024/04/21 10:36:21;;;;;;;1.45;1.13;;;;;;;8.15;42.64;101678.66;5181997;27;20055;-87
2024/04/21 10:38:53;;;;;;;3.97;2.38;;;;;;;10.80;39.04;101676.66;5160717;27;20024;-87
2024/04/21 10:41:26;;;;;;;1.17;0.90;;;;;;;12.96;34.84;101670.97;5178732;27;20023;-86
2024/04/21 10:43:51;;;;;;;1.10;1.10;;;;;;;12.79;34.20;101661.41;5181633;27;20431;-85
2024/04/21 10:46:20;;;;;;;1.95;0.93;;;;;;;11.59;36.40;101670.91;5179609;27;20008;-86
2024/04/21 10:48:46;;;;;;;1.35;1.27;;;;;;;10.33;35.38;101668.41;5182561;27;20017;-87
2024/04/21 10:51:15;;;;;;;0.98;0.98;;;;;;;9.97;36.81;101666.34;5182383;27;20008;-87
2024/04/21 10:53:41;;;;;;;2.75;1.20;;;;;;;10.72;37.96;101674.84;5175488;27;20019;-84
2024/04/21 10:56:12;;;;;;;1.17;1.00;;;;;;;10.86;37.43;101672.31;5191906;27;20012;-88
2024/04/21 10:58:40;;;;;;;3.42;1.10;;;;;;;10.16;38.73;101673.50;5208199;27;20009;-88
2024/04/21 11:01:12;;;;;;;1.27;1.08;;;;;;;9.82;39.86;101667.94;5212060;27;20020;-88
2024/04/21 11:03:42;;;;;;;1.70;1.60;;;;;;;9.37;40.36;101661.31;5182538;27;20143;-87
2024/04/21 11:06:10;;;;;;;2.95;1.02;;;;;;;9.42;40.93;101668.34;5173095;27;20065;-86
2024/04/21 11:08:36;;;;;;;1.30;0.80;;;;;;;9.46;40.70;101676.25;5174090;27;20021;-88
2024/04/21 11:11:05;;;;;;;2.03;1.52;;;;;;;10.52;37.42;101666.88;5149326;27;20020;-85
2024/04/21 11:13:31;;;;;;;1.33;1.20;;;;;;;10.72;36.81;101671.38;5201154;27;20489;-85
2024/04/21 11:16:03;;;;;;;2.15;1.10;;;;;;;10.01;38.12;101666.41;5176555;27;20008;-87
2024/04/21 11:18:31;;;;;;;1.35;1.20;;;;;;;10.03;38.85;101667.28;5204172;27;20020;-87
2024/04/21 11:21:02;;;;;;;1.40;1.30;;;;;;;10.31;38.50;101661.41;5204453;27;20024;-88
2024/04/21 11:23:28;;;;;;;2.58;1.38;;;;;;;12.53;36.36;101669.31;5175616;27;20008;-89
2024/04/21 11:25:57;;;;;;;2.13;1.25;;;;;;;13.14;33.03;101668.31;5202005;27;20423;-85
2024/04/21 11:28:23;;;;;;;2.90;1.33;;;;;;;12.59;34.41;101666.66;5154317;27;20567;-84
2024/04/21 11:30:51;;;;;;;1.00;1.00;;;;;;;11.21;36.83;101686.47;5178872;27;20031;-84
2024/04/21 11:33:19;;;;;;;0.85;0.85;;;;;;;9.96;38.78;101682.88;5177276;27;20037;-88